createdAt,value
2022-09-11T00:00:57.506Z,0.80
2022-09-11T00:03:24.674Z,0.70
2022-09-11T00:05:52.225Z,0.60
2022-09-11T00:08:21.320Z,0.88
2022-09-11T00:11:07.724Z,0.77
2022-09-11T00:13:36.604Z,0.73
2022-09-11T00:16:06.479Z,0.75
2022-09-11T00:18:36.028Z,0.52
2022-09-11T00:21:05.546Z,0.60
2022-09-11T00:23:32.472Z,0.68
2022-09-11T00:26:03.046Z,0.60
2022-09-11T00:28:30.326Z,0.70
2022-09-11T00:31:09.291Z,0.80
2022-09-11T00:33:37.118Z,0.88
2022-09-11T00:36:12.219Z,0.80
2022-09-11T00:38:40.073Z,0.52
2022-09-11T00:41:29.487Z,0.68
2022-09-11T00:44:18.738Z,0.50
2022-09-11T00:46:55.534Z,0.63
2022-09-11T00:49:48.665Z,0.80
2022-09-11T00:52:23.429Z,0.80
2022-09-11T00:55:23.141Z,0.80
2022-09-11T00:58:04.996Z,0.77
2022-09-11T01:00:31.930Z,0.50
2022-09-11T01:02:59.225Z,0.80
2022-09-11T01:05:28.616Z,0.82
2022-09-11T01:07:56.340Z,0.80
2022-09-11T01:10:45.033Z,0.95
2022-09-11T01:13:35.926Z,0.77
2022-09-11T01:16:08.823Z,0.75
2022-09-11T01:18:43.322Z,0.80
2022-09-11T01:21:46.438Z,0.60
2022-09-11T01:25:02.777Z,0.70
2022-09-11T01:27:47.645Z,0.80
2022-09-11T01:30:19.085Z,0.32
2022-09-11T01:33:08.854Z,0.60
2022-09-11T01:35:36.101Z,0.85
2022-09-11T01:38:14.844Z,0.80
2022-09-11T01:40:51.323Z,1.27
2022-09-11T01:43:31.192Z,0.95
2022-09-11T01:46:01.585Z,0.57
2022-09-11T01:48:36.177Z,0.80
2022-09-11T01:51:04.511Z,0.68
2022-09-11T01:53:37.748Z,0.88
2022-09-11T01:56:13.684Z,0.60
2022-09-11T01:58:43.583Z,0.50
2022-09-11T02:01:34.292Z,0.60
2022-09-11T02:04:10.645Z,0.50
2022-09-11T02:06:47.409Z,0.77
2022-09-11T02:09:19.869Z,0.55
2022-09-11T02:11:52.032Z,0.55
2022-09-11T02:14:49.624Z,0.60
2022-09-11T02:17:30.099Z,0.50
2022-09-11T02:20:00.732Z,0.45
2022-09-11T02:22:27.720Z,0.35
2022-09-11T02:24:55.695Z,0.57
2022-09-11T02:27:27.601Z,0.60
2022-09-11T02:29:56.020Z,0.73
2022-09-11T02:32:24.266Z,0.45
2022-09-11T02:34:52.660Z,0.30
2022-09-11T02:37:54.220Z,0.68
2022-09-11T02:40:41.725Z,0.32
2022-09-11T02:43:34.141Z,0.35
2022-09-11T02:46:43.340Z,0.50
2022-09-11T02:49:44.313Z,0.30
2022-09-11T02:52:29.247Z,0.30
2022-09-11T02:55:20.911Z,0.30
2022-09-11T02:57:57.509Z,0.43
2022-09-11T03:00:24.631Z,0.35
2022-09-11T03:03:09.927Z,0.20
2022-09-11T03:05:37.218Z,0.40
2022-09-11T03:08:04.391Z,0.22
2022-09-11T03:10:31.331Z,0.35
2022-09-11T03:12:59.747Z,0.22
2022-09-11T03:15:29.179Z,0.40
2022-09-11T03:17:57.937Z,0.38
2022-09-11T03:20:25.469Z,0.30
2022-09-11T03:22:52.262Z,0.20
2022-09-11T03:25:19.260Z,0.30
2022-09-11T03:27:47.565Z,0.60
2022-09-11T03:30:33.235Z,0.28
2022-09-11T03:33:04.241Z,0.30
2022-09-11T03:35:31.009Z,0.30
2022-09-11T03:37:57.817Z,0.40
2022-09-11T03:40:25.002Z,0.20
2022-09-11T03:42:53.062Z,0.30
2022-09-11T03:45:21.430Z,0.30
2022-09-11T03:47:48.596Z,0.30
2022-09-11T03:50:16.277Z,0.30
2022-09-11T03:52:43.526Z,0.47
2022-09-11T03:55:11.264Z,0.73
2022-09-11T03:57:39.167Z,0.45
2022-09-11T04:00:44.335Z,0.30
2022-09-11T04:03:13.349Z,0.30
2022-09-11T04:05:45.094Z,0.55
2022-09-11T04:08:13.317Z,0.30
2022-09-11T04:10:44.489Z,0.55
2022-09-11T04:16:34.347Z,0.50
2022-09-11T04:19:02.198Z,0.30
2022-09-11T04:21:30.099Z,0.30
2022-09-11T04:24:00.301Z,0.50
2022-09-11T04:26:32.927Z,0.45
2022-09-11T04:29:07.276Z,0.50
2022-09-11T04:31:36.277Z,0.40
2022-09-11T04:34:03.477Z,0.60
2022-09-11T04:36:52.688Z,0.63
2022-09-11T04:39:21.443Z,0.50
2022-09-11T04:41:49.192Z,0.50
2022-09-11T04:44:16.627Z,0.80
2022-09-11T04:46:45.259Z,0.65
2022-09-11T04:49:12.594Z,0.60
2022-09-11T04:51:40.618Z,0.63
2022-09-11T04:54:18.011Z,0.65
2022-09-11T04:56:45.753Z,0.52
2022-09-11T04:59:22.936Z,0.60
2022-09-11T05:02:08.396Z,0.50
2022-09-11T05:04:39.366Z,0.50
2022-09-11T05:07:06.229Z,0.45
2022-09-11T05:09:33.189Z,0.60
2022-09-11T05:11:59.989Z,0.40
2022-09-11T05:14:32.759Z,0.50
2022-09-11T05:17:02.176Z,0.40
2022-09-11T05:19:30.481Z,0.90
2022-09-11T05:21:57.897Z,0.50
2022-09-11T05:24:24.998Z,0.57
2022-09-11T05:27:10.080Z,0.50
2022-09-11T05:32:24.231Z,0.52
2022-09-11T05:34:51.448Z,0.57
2022-09-11T05:37:21.126Z,0.50
2022-09-11T05:40:07.591Z,0.40
2022-09-11T05:42:34.704Z,0.50
2022-09-11T05:45:01.426Z,0.52
2022-09-11T05:47:29.018Z,0.40
2022-09-11T05:49:56.582Z,0.63
2022-09-11T05:52:24.884Z,0.40
2022-09-11T05:54:53.680Z,0.65
2022-09-11T05:57:20.574Z,0.52
2022-09-11T05:59:48.207Z,0.40
2022-09-11T06:02:14.994Z,0.47
2022-09-11T06:04:47.501Z,0.55
2022-09-11T06:07:14.336Z,0.70
2022-09-11T06:09:42.984Z,0.80
2022-09-11T06:12:12.313Z,0.30
2022-09-11T06:14:40.801Z,0.30
2022-09-11T06:17:07.565Z,0.30
2022-09-11T06:19:34.474Z,0.40
2022-09-11T06:22:01.697Z,0.43
2022-09-11T06:24:33.221Z,0.40
2022-09-11T06:27:00.843Z,0.40
2022-09-11T06:29:28.991Z,0.25
2022-09-11T06:31:55.803Z,0.52
2022-09-11T06:34:27.048Z,0.30
2022-09-11T06:36:55.837Z,0.65
2022-09-11T06:39:41.592Z,0.40
2022-09-11T06:42:10.727Z,0.35
2022-09-11T06:44:37.567Z,0.95
2022-09-11T06:47:24.725Z,0.50
2022-09-11T06:49:52.893Z,0.40
2022-09-11T06:52:37.705Z,0.65
2022-09-11T06:55:14.556Z,0.50
2022-09-11T06:57:48.088Z,0.60
2022-09-11T07:00:34.865Z,0.70
2022-09-11T07:03:03.402Z,0.40
2022-09-11T07:05:30.950Z,0.40
2022-09-11T07:08:00.514Z,0.60
2022-09-11T07:10:33.292Z,0.32
2022-09-11T07:13:01.757Z,0.50
2022-09-11T07:15:29.550Z,0.90
2022-09-11T07:17:58.182Z,0.43
2022-09-11T07:20:25.285Z,0.50
2022-09-11T07:22:52.739Z,0.40
2022-09-11T07:25:20.914Z,0.52
2022-09-11T07:28:06.936Z,0.68
2022-09-11T07:30:35.287Z,0.75
2022-09-11T07:33:02.205Z,0.70
2022-09-11T07:35:29.905Z,0.98
2022-09-11T07:37:58.691Z,0.70
2022-09-11T07:40:27.807Z,0.65
2022-09-11T07:42:57.465Z,1.02
2022-09-11T07:45:24.328Z,0.55
2022-09-11T07:47:52.167Z,0.57
2022-09-11T07:53:51.905Z,0.80
2022-09-11T07:56:24.004Z,0.80
2022-09-11T07:58:52.479Z,0.73
2022-09-11T08:01:23.005Z,0.77
2022-09-11T08:03:56.295Z,1.60
2022-09-11T08:06:24.049Z,1.15
2022-09-11T08:08:55.503Z,1.10
2022-09-11T08:11:24.555Z,1.52
2022-09-11T08:13:53.942Z,1.77
2022-09-11T08:16:24.854Z,2.35
2022-09-11T08:18:54.900Z,2.38
2022-09-11T08:21:24.091Z,1.98
2022-09-11T08:23:50.859Z,2.42
2022-09-11T08:26:21.868Z,3.17
2022-09-11T08:28:53.112Z,2.50
2022-09-11T08:31:23.285Z,3.05
2022-09-11T08:34:09.046Z,3.30
2022-09-11T08:36:37.333Z,2.95
2022-09-11T08:39:05.250Z,3.13
2022-09-11T08:41:48.970Z,3.53
2022-09-11T08:44:26.336Z,3.22
2022-09-11T08:47:06.659Z,3.22
2022-09-11T08:49:46.286Z,2.60
2022-09-11T08:52:15.793Z,3.33
2022-09-11T08:54:46.123Z,2.38
2022-09-11T08:57:28.634Z,2.40
2022-09-11T09:00:51.258Z,2.42
2022-09-11T09:03:38.738Z,1.80
2022-09-11T09:06:28.260Z,2.38
2022-09-11T09:09:34.923Z,2.22
2022-09-11T09:12:25.036Z,2.08
2022-09-11T09:15:31.109Z,2.42
2022-09-11T09:18:08.925Z,1.90
2022-09-11T09:20:43.528Z,1.75
2022-09-11T09:23:38.223Z,1.40
2022-09-11T09:26:17.750Z,1.17
2022-09-11T09:28:50.656Z,1.20
2022-09-11T09:31:21.514Z,0.75
2022-09-11T09:33:52.821Z,0.80
2022-09-11T09:36:24.647Z,0.85
2022-09-11T09:38:53.784Z,0.70
2022-09-11T09:41:46.451Z,0.90
2022-09-11T09:44:19.818Z,0.70
2022-09-11T09:46:51.001Z,0.70
2022-09-11T09:49:28.580Z,1.10
2022-09-11T09:52:03.571Z,0.98
2022-09-11T09:54:34.091Z,0.98
2022-09-11T09:57:04.708Z,0.40
2022-09-11T09:59:47.577Z,0.45
2022-09-11T10:02:39.785Z,0.50
2022-09-11T10:05:13.501Z,0.60
2022-09-11T10:07:48.760Z,0.60
2022-09-11T10:10:26.678Z,0.35
2022-09-11T10:13:18.034Z,0.43
2022-09-11T10:15:49.360Z,0.50
2022-09-11T10:24:24.065Z,0.50
2022-09-11T10:26:53.239Z,0.65
2022-09-11T10:29:19.955Z,0.60
2022-09-11T10:31:54.898Z,0.65
2022-09-11T10:34:25.413Z,0.60
2022-09-11T10:37:00.648Z,0.60
2022-09-11T10:42:17.736Z,0.50
2022-09-11T10:44:46.704Z,0.60
2022-09-11T10:47:18.531Z,0.50
2022-09-11T10:49:46.456Z,0.55
2022-09-11T10:52:13.640Z,0.90
2022-09-11T10:54:55.370Z,0.73
2022-09-11T10:57:47.691Z,0.40
2022-09-11T11:00:48.353Z,0.50
2022-09-11T11:03:34.048Z,0.70
2022-09-11T11:06:41.087Z,0.50
2022-09-11T11:09:35.819Z,0.88
2022-09-11T11:12:22.829Z,0.65
2022-09-11T11:15:14.268Z,0.50
2022-09-11T11:17:51.524Z,0.43
2022-09-11T11:20:44.737Z,0.82
2022-09-11T11:26:31.997Z,0.60
2022-09-11T11:29:56.312Z,0.60
2022-09-11T11:32:44.915Z,0.88
2022-09-11T11:35:47.034Z,0.80
2022-09-11T11:38:28.039Z,0.90
2022-09-11T11:41:04.332Z,0.50
2022-09-11T11:43:37.586Z,0.40
2022-09-11T11:46:18.110Z,0.60
2022-09-11T11:48:54.915Z,0.82
2022-09-11T11:51:28.083Z,1.02
2022-09-11T11:54:10.765Z,0.50
2022-09-11T11:56:48.895Z,0.95
2022-09-11T11:59:34.441Z,0.50
2022-09-11T12:02:18.796Z,0.40
2022-09-11T12:05:26.554Z,0.60
2022-09-11T12:07:53.849Z,0.60
2022-09-11T12:10:34.329Z,0.70
2022-09-11T12:13:06.612Z,0.60
2022-09-11T12:15:36.785Z,0.57
2022-09-11T12:18:20.749Z,0.70
2022-09-11T12:23:35.585Z,0.90
2022-09-11T12:26:19.181Z,0.70
2022-09-11T12:29:14.509Z,0.50
2022-09-11T12:31:50.133Z,0.40
2022-09-11T12:34:18.794Z,0.40
2022-09-11T12:37:00.739Z,0.55
2022-09-11T12:39:40.069Z,0.70
2022-09-11T12:42:28.130Z,0.60
2022-09-11T12:44:55.327Z,0.55
2022-09-11T12:47:37.007Z,0.63
2022-09-11T12:50:31.654Z,0.50
2022-09-11T12:53:02.391Z,0.73
2022-09-11T12:58:39.119Z,0.75
2022-09-11T13:01:14.894Z,0.75
2022-09-11T13:03:53.875Z,1.35
2022-09-11T13:06:21.570Z,0.63
2022-09-11T13:08:55.929Z,1.05
2022-09-11T13:17:45.062Z,0.88
2022-09-11T13:20:22.241Z,0.75
2022-09-11T13:22:57.645Z,1.60
2022-09-11T13:25:28.626Z,1.67
2022-09-11T13:28:23.281Z,0.90
2022-09-11T13:31:04.919Z,0.57
2022-09-11T13:33:32.784Z,1.20
2022-09-11T13:36:02.846Z,1.00
2022-09-11T13:38:37.796Z,0.70
2022-09-11T13:41:13.233Z,1.13
2022-09-11T13:43:47.387Z,1.35
2022-09-11T13:46:17.154Z,1.10
2022-09-11T13:48:45.676Z,1.48
2022-09-11T13:51:14.693Z,0.57
2022-09-11T13:53:44.527Z,1.35
2022-09-11T13:56:38.484Z,0.95
2022-09-11T13:59:35.361Z,0.80
2022-09-11T14:02:06.664Z,0.60
2022-09-11T14:04:41.225Z,0.90
2022-09-11T14:07:21.744Z,1.10
2022-09-11T14:09:58.442Z,0.88
2022-09-11T14:13:27.793Z,1.48
2022-09-11T14:16:01.935Z,1.17
2022-09-11T14:18:46.194Z,0.80
2022-09-11T14:21:16.828Z,1.23
2022-09-11T14:23:51.595Z,0.77
2022-09-11T14:26:37.111Z,0.95
2022-09-11T14:29:26.180Z,1.10
2022-09-11T14:32:31.445Z,1.13
2022-09-11T14:34:58.706Z,1.02
2022-09-11T14:37:28.134Z,1.30
2022-09-11T14:39:58.201Z,1.00
2022-09-11T14:42:31.935Z,0.80
2022-09-11T14:44:58.704Z,1.10
2022-09-11T14:47:28.764Z,1.02
2022-09-11T14:49:57.569Z,1.50
2022-09-11T14:52:27.333Z,0.77
2022-09-11T14:54:55.216Z,0.82
2022-09-11T14:57:24.098Z,0.73
2022-09-11T14:59:52.504Z,1.33
2022-09-11T15:02:24.617Z,1.25
2022-09-11T15:05:19.121Z,0.75
2022-09-11T15:07:46.094Z,1.00
2022-09-11T15:10:14.069Z,0.82
2022-09-11T15:12:41.706Z,0.63
2022-09-11T15:15:10.375Z,0.80
2022-09-11T15:17:37.245Z,0.85
2022-09-11T15:20:07.912Z,0.98
2022-09-11T15:22:35.412Z,1.08
2022-09-11T15:25:03.816Z,0.80
2022-09-11T15:27:31.408Z,0.55
2022-09-11T15:29:58.181Z,0.82
2022-09-11T15:32:25.107Z,1.42
2022-09-11T15:34:52.197Z,1.48
2022-09-11T15:37:18.911Z,0.70
2022-09-11T15:39:45.865Z,1.00
2022-09-11T15:44:58.203Z,1.10
2022-09-11T15:47:43.420Z,1.13
2022-09-11T15:50:10.784Z,1.05
2022-09-11T15:52:38.119Z,1.08
2022-09-11T15:55:05.754Z,1.10
2022-09-11T15:57:34.536Z,1.48
2022-09-11T16:00:01.608Z,1.40
2022-09-11T16:02:38.634Z,1.42
2022-09-11T16:05:06.175Z,0.85
2022-09-11T16:07:33.126Z,1.20
2022-09-11T16:10:00.035Z,1.35
2022-09-11T16:12:26.835Z,1.15
2022-09-11T16:14:53.692Z,1.55
2022-09-11T16:17:21.699Z,2.00
2022-09-11T16:20:07.260Z,1.48
2022-09-11T16:22:34.630Z,1.23
2022-09-11T16:25:02.138Z,1.63
2022-09-11T16:27:28.962Z,1.63
2022-09-11T16:32:42.682Z,1.65
2022-09-11T16:35:13.367Z,1.83
2022-09-11T16:37:40.443Z,1.88
2022-09-11T16:40:08.401Z,1.15
2022-09-11T16:42:35.280Z,1.10
2022-09-11T16:45:02.033Z,1.67
2022-09-11T16:47:30.457Z,0.95
2022-09-11T16:50:12.568Z,1.80
2022-09-11T16:52:39.572Z,1.63
2022-09-11T16:55:08.124Z,1.98
2022-09-11T16:57:34.980Z,1.92
2022-09-11T17:00:02.281Z,2.15
2022-09-11T17:02:48.036Z,2.20
2022-09-11T17:05:18.124Z,2.00
2022-09-11T17:07:44.961Z,1.27
2022-09-11T17:10:11.931Z,1.45
2022-09-11T17:12:38.801Z,1.90
2022-09-11T17:15:06.198Z,1.42
2022-09-11T17:17:35.546Z,2.03
2022-09-11T17:20:02.500Z,1.83
2022-09-11T17:22:29.792Z,3.00
2022-09-11T17:24:56.657Z,2.97
2022-09-11T17:27:23.864Z,3.92
2022-09-11T17:29:51.094Z,2.33
2022-09-11T17:32:29.107Z,2.70
2022-09-11T17:34:58.474Z,2.55
2022-09-11T17:37:26.567Z,2.95
2022-09-11T17:39:53.868Z,2.95
2022-09-11T17:42:20.779Z,3.58
2022-09-11T17:44:47.989Z,2.92
2022-09-11T17:47:14.726Z,3.45
2022-09-11T17:49:41.560Z,2.50
2022-09-11T17:52:08.344Z,3.22
2022-09-11T17:54:35.570Z,2.60
2022-09-11T17:57:02.330Z,2.92
2022-09-11T18:02:38.953Z,3.22
2022-09-11T18:05:07.181Z,2.88
2022-09-11T18:07:33.992Z,3.55
2022-09-11T18:10:02.184Z,3.55
2022-09-11T18:17:58.376Z,3.38
2022-09-11T18:20:25.098Z,2.45
2022-09-11T18:22:51.976Z,3.38
2022-09-11T18:25:25.115Z,3.53
2022-09-11T18:27:51.988Z,3.17
2022-09-11T18:30:19.939Z,2.70
2022-09-11T18:32:46.769Z,3.05
2022-09-11T18:35:13.526Z,3.50
2022-09-11T18:37:40.276Z,3.10
2022-09-11T18:40:07.852Z,3.00
2022-09-11T18:42:54.662Z,3.50
2022-09-11T18:45:21.659Z,3.78
2022-09-11T18:48:07.060Z,4.65
2022-09-11T18:50:35.950Z,4.57
2022-09-11T18:53:03.217Z,3.97
2022-09-11T18:55:30.304Z,3.63
2022-09-11T18:57:58.056Z,4.60
2022-09-11T19:00:24.888Z,3.75
2022-09-11T19:02:55.487Z,3.58
2022-09-11T19:05:23.144Z,4.28
2022-09-11T19:07:50.547Z,4.72
2022-09-11T19:10:36.933Z,4.03
2022-09-11T19:13:03.821Z,4.38
2022-09-11T19:15:31.157Z,5.00
2022-09-11T19:18:00.250Z,4.82
2022-09-11T19:20:27.200Z,4.90
2022-09-11T19:22:54.920Z,5.57
2022-09-11T19:25:40.328Z,4.80
2022-09-11T19:28:07.368Z,5.85
2022-09-11T19:33:21.581Z,4.88
2022-09-11T19:36:04.836Z,4.88
2022-09-11T19:38:36.670Z,5.07
2022-09-11T19:41:04.694Z,5.30
2022-09-11T19:46:25.974Z,5.13
2022-09-11T19:48:55.072Z,4.72
2022-09-11T19:51:24.860Z,5.60
2022-09-11T19:53:53.045Z,4.65
2022-09-11T19:56:20.274Z,4.35
2022-09-11T19:58:47.022Z,4.28
2022-09-11T20:01:16.086Z,5.32
2022-09-11T20:03:46.083Z,4.38
2022-09-11T20:09:27.272Z,4.32
2022-09-11T20:11:47.374Z,4.90
2022-09-11T20:14:14.202Z,4.57
2022-09-11T20:17:00.626Z,4.97
2022-09-11T20:19:27.730Z,4.13
2022-09-11T20:21:54.527Z,4.63
2022-09-11T20:24:39.793Z,5.38
2022-09-11T20:27:06.740Z,4.93
2022-09-11T20:29:33.441Z,4.30
2022-09-11T20:34:44.436Z,3.60
2022-09-11T20:39:55.543Z,4.68
2022-09-11T20:42:22.937Z,4.50
2022-09-11T20:44:49.641Z,4.93
2022-09-11T20:47:16.350Z,4.70
2022-09-11T20:49:43.108Z,4.57
2022-09-11T20:52:11.460Z,4.25
2022-09-11T20:54:39.149Z,4.40
2022-09-11T20:57:06.039Z,3.47
2022-09-11T20:59:33.144Z,5.20
2022-09-11T21:02:00.671Z,4.53
2022-09-11T21:04:27.603Z,4.68
2022-09-11T21:06:54.679Z,4.03
2022-09-11T21:09:22.806Z,4.60
2022-09-11T21:12:08.329Z,5.03
2022-09-11T21:14:35.079Z,4.43
2022-09-11T21:17:02.330Z,5.40
2022-09-11T21:19:29.148Z,5.35
2022-09-11T21:21:55.908Z,4.85
2022-09-11T21:24:22.601Z,5.10
2022-09-11T21:26:49.465Z,3.97
2022-09-11T21:29:16.166Z,4.00
2022-09-11T21:31:42.982Z,3.90
2022-09-11T21:34:10.055Z,2.78
2022-09-11T21:36:55.101Z,2.60
2022-09-11T21:39:22.329Z,2.30
2022-09-11T21:41:49.107Z,1.55
2022-09-11T21:44:15.900Z,1.60
2022-09-11T21:46:42.638Z,1.83
2022-09-11T21:49:10.127Z,1.33
2022-09-11T21:51:36.986Z,1.15
2022-09-11T21:54:04.010Z,1.25
2022-09-11T21:56:33.013Z,1.10
2022-09-11T22:01:44.729Z,1.38
2022-09-11T22:04:11.599Z,1.08
2022-09-11T22:06:56.844Z,0.75
2022-09-11T22:09:23.734Z,0.90
2022-09-11T22:12:10.592Z,1.50
2022-09-11T22:14:37.729Z,1.70
2022-09-11T22:17:04.937Z,1.85
2022-09-11T22:19:31.785Z,1.08
2022-09-11T22:21:58.532Z,1.70
2022-09-11T22:24:25.427Z,2.40
2022-09-11T22:29:37.088Z,1.92
2022-09-11T22:32:05.150Z,1.90
2022-09-11T22:34:36.760Z,2.10
2022-09-11T22:37:04.166Z,2.17
2022-09-11T22:39:31.850Z,2.28
2022-09-11T22:41:59.761Z,2.50
2022-09-11T22:44:27.185Z,2.47
2022-09-11T22:46:54.337Z,2.58
2022-09-11T22:52:05.709Z,2.90
2022-09-11T22:54:32.437Z,2.55
2022-09-11T22:56:59.204Z,3.10
2022-09-11T22:59:26.273Z,2.38
2022-09-11T23:01:53.040Z,3.25
2022-09-11T23:04:19.832Z,3.22
2022-09-11T23:07:05.401Z,2.65
2022-09-11T23:09:32.213Z,2.38
2022-09-11T23:11:59.177Z,2.63
2022-09-11T23:14:44.545Z,2.65
2022-09-11T23:17:11.332Z,2.70
2022-09-11T23:19:38.158Z,2.53
2022-09-11T23:22:23.436Z,2.60
2022-09-11T23:24:50.161Z,2.67
2022-09-11T23:27:17.167Z,2.88
2022-09-11T23:30:02.469Z,3.45
2022-09-11T23:32:29.240Z,3.55
2022-09-11T23:34:55.937Z,2.72
2022-09-11T23:37:22.688Z,3.08
2022-09-11T23:39:49.618Z,2.58
2022-09-11T23:42:16.373Z,3.20
2022-09-11T23:44:43.125Z,3.30
2022-09-11T23:47:09.934Z,2.65
2022-09-11T23:49:36.782Z,3.00
2022-09-11T23:52:05.029Z,3.20
2022-09-11T23:55:09.488Z,3.30
2022-09-11T23:57:36.276Z,2.75
